sensor_id;sensor_type;location;lat;lon;timestamp;P1;durP1;ratioP1;P2;durP2;ratioP2
28774;SDS011;15926;51.348;6.596;2023-02-01T00:00:51;19.00;;;5.43;;
28774;SDS011;15926;51.348;6.596;2023-02-01T00:03:17;15.02;;;4.50;;
28774;SDS011;15926;51.348;6.596;2023-02-01T00:05:44;12.15;;;5.32;;
28774;SDS011;15926;51.348;6.596;2023-02-01T00:08:10;20.73;;;5.60;;
28774;SDS011;15926;51.348;6.596;2023-02-01T00:10:36;16.67;;;4.97;;
28774;SDS011;15926;51.348;6.596;2023-02-01T00:13:02;12.77;;;5.47;;
28774;SDS011;15926;51.348;6.596;2023-02-01T00:15:28;12.68;;;5.00;;
28774;SDS011;15926;51.348;6.596;2023-02-01T00:17:54;10.10;;;4.70;;
28774;SDS011;15926;51.348;6.596;2023-02-01T00:20:20;13.57;;;5.88;;
28774;SDS011;15926;51.348;6.596;2023-02-01T00:22:46;11.63;;;5.00;;
28774;SDS011;15926;51.348;6.596;2023-02-01T00:25:12;10.98;;;4.70;;
28774;SDS011;15926;51.348;6.596;2023-02-01T00:27:38;14.85;;;5.15;;
28774;SDS011;15926;51.348;6.596;2023-02-01T00:30:04;17.98;;;6.65;;
28774;SDS011;15926;51.348;6.596;2023-02-01T00:32:30;16.83;;;7.63;;
28774;SDS011;15926;51.348;6.596;2023-02-01T00:34:56;12.35;;;6.00;;
28774;SDS011;15926;51.348;6.596;2023-02-01T00:37:22;16.13;;;6.97;;
28774;SDS011;15926;51.348;6.596;2023-02-01T00:39:48;16.70;;;6.90;;
28774;SDS011;15926;51.348;6.596;2023-02-01T00:42:15;19.55;;;7.00;;
28774;SDS011;15926;51.348;6.596;2023-02-01T00:44:41;14.98;;;6.43;;
28774;SDS011;15926;51.348;6.596;2023-02-01T00:47:07;18.65;;;6.80;;
28774;SDS011;15926;51.348;6.596;2023-02-01T00:49:33;19.33;;;6.82;;
28774;SDS011;15926;51.348;6.596;2023-02-01T00:51:59;12.45;;;6.15;;
28774;SDS011;15926;51.348;6.596;2023-02-01T00:54:25;19.98;;;6.15;;
28774;SDS011;15926;51.348;6.596;2023-02-01T00:56:51;22.02;;;6.50;;
28774;SDS011;15926;51.348;6.596;2023-02-01T00:59:17;20.58;;;6.78;;
28774;SDS011;15926;51.348;6.596;2023-02-01T01:01:43;20.58;;;5.38;;
28774;SDS011;15926;51.348;6.596;2023-02-01T01:04:09;14.43;;;5.18;;
28774;SDS011;15926;51.348;6.596;2023-02-01T01:06:35;10.13;;;4.75;;
28774;SDS011;15926;51.348;6.596;2023-02-01T01:09:02;13.52;;;5.22;;
28774;SDS011;15926;51.348;6.596;2023-02-01T01:11:30;12.43;;;4.85;;
28774;SDS011;15926;51.348;6.596;2023-02-01T01:13:57;12.00;;;4.13;;
28774;SDS011;15926;51.348;6.596;2023-02-01T01:16:24;12.82;;;4.30;;
28774;SDS011;15926;51.348;6.596;2023-02-01T01:18:50;11.30;;;3.90;;
28774;SDS011;15926;51.348;6.596;2023-02-01T01:21:17;15.13;;;4.28;;
28774;SDS011;15926;51.348;6.596;2023-02-01T01:23:43;8.50;;;4.05;;
28774;SDS011;15926;51.348;6.596;2023-02-01T01:26:12;11.07;;;4.10;;
28774;SDS011;15926;51.348;6.596;2023-02-01T01:28:38;9.57;;;4.05;;
28774;SDS011;15926;51.348;6.596;2023-02-01T01:31:04;11.43;;;3.50;;
28774;SDS011;15926;51.348;6.596;2023-02-01T01:33:33;16.50;;;4.03;;
28774;SDS011;15926;51.348;6.596;2023-02-01T01:35:59;16.27;;;6.78;;
28774;SDS011;15926;51.348;6.596;2023-02-01T01:38:25;16.50;;;4.90;;
28774;SDS011;15926;51.348;6.596;2023-02-01T01:40:51;13.50;;;3.13;;
28774;SDS011;15926;51.348;6.596;2023-02-01T01:43:18;15.15;;;2.78;;
28774;SDS011;15926;51.348;6.596;2023-02-01T01:45:46;11.65;;;2.78;;
28774;SDS011;15926;51.348;6.596;2023-02-01T01:48:16;7.80;;;2.45;;
28774;SDS011;15926;51.348;6.596;2023-02-01T01:50:46;9.48;;;3.05;;
28774;SDS011;15926;51.348;6.596;2023-02-01T01:53:13;17.38;;;3.15;;
28774;SDS011;15926;51.348;6.596;2023-02-01T01:55:42;15.63;;;3.55;;
28774;SDS011;15926;51.348;6.596;2023-02-01T01:58:10;17.52;;;2.70;;
28774;SDS011;15926;51.348;6.596;2023-02-01T02:00:37;12.43;;;2.60;;
28774;SDS011;15926;51.348;6.596;2023-02-01T02:03:46;10.95;;;2.60;;
28774;SDS011;15926;51.348;6.596;2023-02-01T02:08:19;8.05;;;2.60;;
28774;SDS011;15926;51.348;6.596;2023-02-01T02:10:47;14.23;;;2.80;;
28774;SDS011;15926;51.348;6.596;2023-02-01T02:13:26;12.40;;;2.88;;
28774;SDS011;15926;51.348;6.596;2023-02-01T02:15:58;11.68;;;2.97;;
28774;SDS011;15926;51.348;6.596;2023-02-01T02:18:27;11.57;;;3.10;;
28774;SDS011;15926;51.348;6.596;2023-02-01T02:28:42;9.60;;;2.53;;
28774;SDS011;15926;51.348;6.596;2023-02-01T02:31:58;7.43;;;2.28;;
28774;SDS011;15926;51.348;6.596;2023-02-01T02:34:04;7.20;;;2.50;;
28774;SDS011;15926;51.348;6.596;2023-02-01T02:39:05;14.82;;;3.08;;
28774;SDS011;15926;51.348;6.596;2023-02-01T02:47:03;16.90;;;2.63;;
28774;SDS011;15926;51.348;6.596;2023-02-01T02:52:49;13.18;;;3.05;;
28774;SDS011;15926;51.348;6.596;2023-02-01T02:55:35;12.35;;;2.72;;
28774;SDS011;15926;51.348;6.596;2023-02-01T02:58:04;16.52;;;3.40;;
28774;SDS011;15926;51.348;6.596;2023-02-01T03:00:49;10.77;;;2.85;;
28774;SDS011;15926;51.348;6.596;2023-02-01T03:03:37;9.48;;;2.88;;
28774;SDS011;15926;51.348;6.596;2023-02-01T03:06:22;12.67;;;3.97;;
28774;SDS011;15926;51.348;6.596;2023-02-01T03:08:48;6.75;;;2.03;;
28774;SDS011;15926;51.348;6.596;2023-02-01T03:11:18;13.45;;;3.30;;
28774;SDS011;15926;51.348;6.596;2023-02-01T03:21:10;16.50;;;2.60;;
28774;SDS011;15926;51.348;6.596;2023-02-01T03:23:38;14.13;;;2.63;;
28774;SDS011;15926;51.348;6.596;2023-02-01T03:26:05;17.65;;;3.67;;
28774;SDS011;15926;51.348;6.596;2023-02-01T03:28:33;20.10;;;3.27;;
28774;SDS011;15926;51.348;6.596;2023-02-01T03:30:59;13.23;;;2.80;;
28774;SDS011;15926;51.348;6.596;2023-02-01T03:33:26;14.82;;;3.92;;
28774;SDS011;15926;51.348;6.596;2023-02-01T03:36:03;11.02;;;3.10;;
28774;SDS011;15926;51.348;6.596;2023-02-01T03:43:33;11.25;;;3.22;;
28774;SDS011;15926;51.348;6.596;2023-02-01T03:46:01;7.22;;;2.72;;
28774;SDS011;15926;51.348;6.596;2023-02-01T03:48:29;16.08;;;2.80;;
28774;SDS011;15926;51.348;6.596;2023-02-01T03:50:56;10.70;;;2.70;;
28774;SDS011;15926;51.348;6.596;2023-02-01T03:53:22;18.77;;;3.03;;
28774;SDS011;15926;51.348;6.596;2023-02-01T03:55:49;12.02;;;2.80;;
28774;SDS011;15926;51.348;6.596;2023-02-01T03:58:18;8.35;;;2.70;;
28774;SDS011;15926;51.348;6.596;2023-02-01T04:00:54;16.95;;;3.63;;
28774;SDS011;15926;51.348;6.596;2023-02-01T04:03:20;11.77;;;2.70;;
28774;SDS011;15926;51.348;6.596;2023-02-01T04:05:47;17.55;;;3.17;;
28774;SDS011;15926;51.348;6.596;2023-02-01T04:08:13;16.10;;;3.25;;
28774;SDS011;15926;51.348;6.596;2023-02-01T04:10:40;15.15;;;2.83;;
28774;SDS011;15926;51.348;6.596;2023-02-01T04:13:06;17.85;;;2.85;;
28774;SDS011;15926;51.348;6.596;2023-02-01T04:15:32;11.68;;;3.85;;
28774;SDS011;15926;51.348;6.596;2023-02-01T04:17:59;19.45;;;3.75;;
28774;SDS011;15926;51.348;6.596;2023-02-01T04:20:25;15.85;;;3.75;;
28774;SDS011;15926;51.348;6.596;2023-02-01T04:22:51;12.90;;;3.17;;
28774;SDS011;15926;51.348;6.596;2023-02-01T04:25:17;18.30;;;2.75;;
28774;SDS011;15926;51.348;6.596;2023-02-01T04:27:43;13.73;;;3.05;;
28774;SDS011;15926;51.348;6.596;2023-02-01T04:30:10;9.20;;;2.20;;
28774;SDS011;15926;51.348;6.596;2023-02-01T04:32:36;9.40;;;2.65;;
28774;SDS011;15926;51.348;6.596;2023-02-01T04:35:03;15.68;;;2.40;;
28774;SDS011;15926;51.348;6.596;2023-02-01T04:37:29;8.68;;;2.40;;
28774;SDS011;15926;51.348;6.596;2023-02-01T04:39:55;15.35;;;2.55;;
28774;SDS011;15926;51.348;6.596;2023-02-01T04:42:21;14.50;;;2.83;;
28774;SDS011;15926;51.348;6.596;2023-02-01T04:44:47;20.02;;;2.88;;
28774;SDS011;15926;51.348;6.596;2023-02-01T04:47:13;12.05;;;2.80;;
28774;SDS011;15926;51.348;6.596;2023-02-01T04:49:40;13.15;;;3.08;;
28774;SDS011;15926;51.348;6.596;2023-02-01T04:52:06;11.88;;;2.70;;
28774;SDS011;15926;51.348;6.596;2023-02-01T04:54:32;17.45;;;2.20;;
28774;SDS011;15926;51.348;6.596;2023-02-01T04:56:58;16.17;;;2.90;;
28774;SDS011;15926;51.348;6.596;2023-02-01T04:59:24;20.95;;;3.38;;
28774;SDS011;15926;51.348;6.596;2023-02-01T05:01:51;14.70;;;2.65;;
28774;SDS011;15926;51.348;6.596;2023-02-01T05:04:16;19.23;;;3.22;;
28774;SDS011;15926;51.348;6.596;2023-02-01T05:06:43;18.25;;;3.13;;
28774;SDS011;15926;51.348;6.596;2023-02-01T05:09:09;13.23;;;2.60;;
28774;SDS011;15926;51.348;6.596;2023-02-01T05:11:35;17.02;;;2.88;;
28774;SDS011;15926;51.348;6.596;2023-02-01T05:14:20;13.93;;;3.20;;
28774;SDS011;15926;51.348;6.596;2023-02-01T05:16:46;19.73;;;3.13;;
28774;SDS011;15926;51.348;6.596;2023-02-01T05:19:12;14.93;;;3.20;;
28774;SDS011;15926;51.348;6.596;2023-02-01T05:21:38;16.00;;;2.83;;
28774;SDS011;15926;51.348;6.596;2023-02-01T05:24:04;12.77;;;2.42;;
28774;SDS011;15926;51.348;6.596;2023-02-01T05:26:44;16.95;;;2.45;;
28774;SDS011;15926;51.348;6.596;2023-02-01T05:29:11;11.98;;;2.72;;
28774;SDS011;15926;51.348;6.596;2023-02-01T05:31:37;15.50;;;2.75;;
28774;SDS011;15926;51.348;6.596;2023-02-01T05:34:03;20.30;;;3.78;;
28774;SDS011;15926;51.348;6.596;2023-02-01T05:36:30;17.30;;;3.63;;
28774;SDS011;15926;51.348;6.596;2023-02-01T05:38:56;15.85;;;2.97;;
28774;SDS011;15926;51.348;6.596;2023-02-01T05:41:22;12.73;;;2.65;;
28774;SDS011;15926;51.348;6.596;2023-02-01T05:43:48;15.27;;;2.35;;
28774;SDS011;15926;51.348;6.596;2023-02-01T05:46:14;20.45;;;2.67;;
28774;SDS011;15926;51.348;6.596;2023-02-01T05:48:40;15.20;;;2.67;;
28774;SDS011;15926;51.348;6.596;2023-02-01T05:51:06;14.65;;;2.65;;
28774;SDS011;15926;51.348;6.596;2023-02-01T05:53:33;19.75;;;2.75;;
28774;SDS011;15926;51.348;6.596;2023-02-01T05:55:59;15.25;;;2.75;;
28774;SDS011;15926;51.348;6.596;2023-02-01T05:58:25;14.10;;;2.38;;
28774;SDS011;15926;51.348;6.596;2023-02-01T06:00:51;14.07;;;2.67;;
28774;SDS011;15926;51.348;6.596;2023-02-01T06:03:17;13.73;;;2.13;;
28774;SDS011;15926;51.348;6.596;2023-02-01T06:05:43;18.33;;;3.20;;
28774;SDS011;15926;51.348;6.596;2023-02-01T06:08:10;18.85;;;3.08;;
28774;SDS011;15926;51.348;6.596;2023-02-01T06:10:36;13.18;;;3.15;;
28774;SDS011;15926;51.348;6.596;2023-02-01T06:13:02;14.05;;;3.45;;
28774;SDS011;15926;51.348;6.596;2023-02-01T06:15:28;17.65;;;2.90;;
28774;SDS011;15926;51.348;6.596;2023-02-01T06:17:54;19.73;;;3.45;;
28774;SDS011;15926;51.348;6.596;2023-02-01T06:20:21;15.20;;;2.85;;
28774;SDS011;15926;51.348;6.596;2023-02-01T06:22:47;15.50;;;3.17;;
28774;SDS011;15926;51.348;6.596;2023-02-01T06:25:13;14.00;;;3.05;;
28774;SDS011;15926;51.348;6.596;2023-02-01T06:27:39;13.65;;;2.40;;
28774;SDS011;15926;51.348;6.596;2023-02-01T06:30:05;13.15;;;3.25;;
28774;SDS011;15926;51.348;6.596;2023-02-01T06:32:31;18.52;;;2.47;;
28774;SDS011;15926;51.348;6.596;2023-02-01T06:34:57;18.65;;;2.72;;
28774;SDS011;15926;51.348;6.596;2023-02-01T06:37:25;20.52;;;2.53;;
28774;SDS011;15926;51.348;6.596;2023-02-01T06:39:54;12.75;;;2.83;;
28774;SDS011;15926;51.348;6.596;2023-02-01T06:42:20;15.25;;;3.03;;
28774;SDS011;15926;51.348;6.596;2023-02-01T06:44:46;11.85;;;2.28;;
28774;SDS011;15926;51.348;6.596;2023-02-01T06:47:12;15.45;;;2.80;;
28774;SDS011;15926;51.348;6.596;2023-02-01T06:49:38;15.18;;;2.35;;
28774;SDS011;15926;51.348;6.596;2023-02-01T06:52:05;18.05;;;3.63;;
28774;SDS011;15926;51.348;6.596;2023-02-01T06:54:31;14.60;;;3.63;;
28774;SDS011;15926;51.348;6.596;2023-02-01T06:56:58;13.43;;;2.80;;
28774;SDS011;15926;51.348;6.596;2023-02-01T06:59:24;12.95;;;2.30;;
28774;SDS011;15926;51.348;6.596;2023-02-01T07:01:50;16.67;;;3.67;;
28774;SDS011;15926;51.348;6.596;2023-02-01T07:04:16;11.48;;;2.70;;
28774;SDS011;15926;51.348;6.596;2023-02-01T07:06:42;16.17;;;3.40;;
28774;SDS011;15926;51.348;6.596;2023-02-01T07:09:08;10.75;;;3.40;;
28774;SDS011;15926;51.348;6.596;2023-02-01T07:11:34;20.95;;;5.28;;
28774;SDS011;15926;51.348;6.596;2023-02-01T07:14:02;26.35;;;5.30;;
28774;SDS011;15926;51.348;6.596;2023-02-01T07:16:28;17.50;;;4.72;;
28774;SDS011;15926;51.348;6.596;2023-02-01T07:18:56;20.25;;;4.00;;
28774;SDS011;15926;51.348;6.596;2023-02-01T07:21:22;16.60;;;3.30;;
28774;SDS011;15926;51.348;6.596;2023-02-01T07:23:48;17.48;;;3.75;;
28774;SDS011;15926;51.348;6.596;2023-02-01T07:26:14;31.77;;;5.15;;
28774;SDS011;15926;51.348;6.596;2023-02-01T07:28:41;19.35;;;3.60;;
28774;SDS011;15926;51.348;6.596;2023-02-01T07:31:08;16.30;;;3.70;;
28774;SDS011;15926;51.348;6.596;2023-02-01T07:33:34;17.30;;;3.53;;
28774;SDS011;15926;51.348;6.596;2023-02-01T07:36:01;17.00;;;3.58;;
28774;SDS011;15926;51.348;6.596;2023-02-01T07:38:28;20.67;;;5.28;;
28774;SDS011;15926;51.348;6.596;2023-02-01T07:40:57;26.02;;;4.13;;
28774;SDS011;15926;51.348;6.596;2023-02-01T07:43:24;14.48;;;2.92;;
28774;SDS011;15926;51.348;6.596;2023-02-01T07:45:51;19.40;;;4.05;;
28774;SDS011;15926;51.348;6.596;2023-02-01T07:48:17;21.73;;;5.18;;
28774;SDS011;15926;51.348;6.596;2023-02-01T07:50:43;12.40;;;3.38;;
28774;SDS011;15926;51.348;6.596;2023-02-01T07:53:09;19.25;;;4.65;;
28774;SDS011;15926;51.348;6.596;2023-02-01T07:55:37;21.48;;;4.45;;
28774;SDS011;15926;51.348;6.596;2023-02-01T07:58:03;16.55;;;3.50;;
28774;SDS011;15926;51.348;6.596;2023-02-01T08:00:29;19.33;;;3.95;;
28774;SDS011;15926;51.348;6.596;2023-02-01T08:03:13;23.20;;;4.00;;
28774;SDS011;15926;51.348;6.596;2023-02-01T08:05:39;15.32;;;3.35;;
28774;SDS011;15926;51.348;6.596;2023-02-01T08:08:06;14.13;;;3.63;;
28774;SDS011;15926;51.348;6.596;2023-02-01T08:10:32;15.15;;;3.28;;
28774;SDS011;15926;51.348;6.596;2023-02-01T08:12:59;13.90;;;3.00;;
28774;SDS011;15926;51.348;6.596;2023-02-01T08:15:26;14.13;;;2.55;;
28774;SDS011;15926;51.348;6.596;2023-02-01T08:17:53;21.55;;;4.20;;
28774;SDS011;15926;51.348;6.596;2023-02-01T08:20:20;13.95;;;3.08;;
28774;SDS011;15926;51.348;6.596;2023-02-01T08:22:50;10.50;;;2.63;;
28774;SDS011;15926;51.348;6.596;2023-02-01T08:25:16;20.17;;;3.00;;
28774;SDS011;15926;51.348;6.596;2023-02-01T08:27:42;15.68;;;2.88;;
28774;SDS011;15926;51.348;6.596;2023-02-01T08:30:08;21.92;;;3.00;;
28774;SDS011;15926;51.348;6.596;2023-02-01T08:32:35;12.43;;;3.03;;
28774;SDS011;15926;51.348;6.596;2023-02-01T08:35:01;17.83;;;3.45;;
28774;SDS011;15926;51.348;6.596;2023-02-01T08:37:28;16.80;;;3.25;;
28774;SDS011;15926;51.348;6.596;2023-02-01T08:39:53;20.17;;;3.83;;
28774;SDS011;15926;51.348;6.596;2023-02-01T08:42:19;13.40;;;2.53;;
28774;SDS011;15926;51.348;6.596;2023-02-01T08:45:04;17.70;;;3.35;;
28774;SDS011;15926;51.348;6.596;2023-02-01T08:47:30;20.27;;;5.95;;
28774;SDS011;15926;51.348;6.596;2023-02-01T08:49:56;13.75;;;2.67;;
28774;SDS011;15926;51.348;6.596;2023-02-01T08:52:22;15.98;;;2.45;;
28774;SDS011;15926;51.348;6.596;2023-02-01T08:54:48;13.40;;;2.90;;
28774;SDS011;15926;51.348;6.596;2023-02-01T08:57:14;14.70;;;4.32;;
28774;SDS011;15926;51.348;6.596;2023-02-01T08:59:40;15.27;;;4.18;;
28774;SDS011;15926;51.348;6.596;2023-02-01T09:02:11;20.38;;;4.18;;
28774;SDS011;15926;51.348;6.596;2023-02-01T09:04:37;11.85;;;2.50;;
28774;SDS011;15926;51.348;6.596;2023-02-01T09:07:03;25.30;;;4.43;;
28774;SDS011;15926;51.348;6.596;2023-02-01T09:09:29;13.85;;;3.13;;
28774;SDS011;15926;51.348;6.596;2023-02-01T09:11:55;18.63;;;3.33;;
28774;SDS011;15926;51.348;6.596;2023-02-01T09:14:21;16.67;;;3.22;;
28774;SDS011;15926;51.348;6.596;2023-02-01T09:16:47;17.67;;;3.13;;
28774;SDS011;15926;51.348;6.596;2023-02-01T09:19:14;16.25;;;3.47;;
28774;SDS011;15926;51.348;6.596;2023-02-01T09:21:40;16.67;;;3.25;;
28774;SDS011;15926;51.348;6.596;2023-02-01T09:24:06;22.77;;;3.55;;
28774;SDS011;15926;51.348;6.596;2023-02-01T09:26:32;15.43;;;2.78;;
28774;SDS011;15926;51.348;6.596;2023-02-01T09:28:59;22.23;;;3.75;;
28774;SDS011;15926;51.348;6.596;2023-02-01T09:31:25;15.68;;;3.60;;
28774;SDS011;15926;51.348;6.596;2023-02-01T09:33:51;23.67;;;3.08;;
28774;SDS011;15926;51.348;6.596;2023-02-01T09:36:17;15.35;;;3.83;;
28774;SDS011;15926;51.348;6.596;2023-02-01T09:38:44;18.92;;;3.50;;
28774;SDS011;15926;51.348;6.596;2023-02-01T09:44:00;15.20;;;2.45;;
28774;SDS011;15926;51.348;6.596;2023-02-01T09:46:30;12.73;;;2.55;;
28774;SDS011;15926;51.348;6.596;2023-02-01T09:48:59;20.02;;;3.33;;
28774;SDS011;15926;51.348;6.596;2023-02-01T09:51:37;20.85;;;3.30;;
28774;SDS011;15926;51.348;6.596;2023-02-01T09:56:39;19.73;;;4.07;;
28774;SDS011;15926;51.348;6.596;2023-02-01T09:59:19;16.83;;;3.00;;
28774;SDS011;15926;51.348;6.596;2023-02-01T10:01:48;16.50;;;2.53;;
28774;SDS011;15926;51.348;6.596;2023-02-01T10:04:14;9.82;;;3.05;;
28774;SDS011;15926;51.348;6.596;2023-02-01T10:19:39;14.98;;;3.35;;
28774;SDS011;15926;51.348;6.596;2023-02-01T10:22:10;16.77;;;2.40;;
28774;SDS011;15926;51.348;6.596;2023-02-01T10:27:23;14.52;;;3.17;;
28774;SDS011;15926;51.348;6.596;2023-02-01T10:29:54;11.50;;;2.70;;
28774;SDS011;15926;51.348;6.596;2023-02-01T10:34:56;11.32;;;3.08;;
28774;SDS011;15926;51.348;6.596;2023-02-01T10:37:30;15.05;;;2.53;;
28774;SDS011;15926;51.348;6.596;2023-02-01T10:39:59;15.68;;;2.78;;
28774;SDS011;15926;51.348;6.596;2023-02-01T10:42:26;20.25;;;2.70;;
28774;SDS011;15926;51.348;6.596;2023-02-01T10:44:53;13.55;;;2.97;;
28774;SDS011;15926;51.348;6.596;2023-02-01T10:47:20;11.40;;;2.45;;
28774;SDS011;15926;51.348;6.596;2023-02-01T10:49:51;12.43;;;3.47;;
28774;SDS011;15926;51.348;6.596;2023-02-01T10:52:26;16.08;;;3.15;;
28774;SDS011;15926;51.348;6.596;2023-02-01T10:54:54;11.80;;;2.85;;
28774;SDS011;15926;51.348;6.596;2023-02-01T10:59:46;17.40;;;2.30;;
28774;SDS011;15926;51.348;6.596;2023-02-01T11:02:19;12.43;;;3.42;;
28774;SDS011;15926;51.348;6.596;2023-02-01T11:04:46;9.10;;;2.17;;
28774;SDS011;15926;51.348;6.596;2023-02-01T11:07:24;13.75;;;2.60;;
28774;SDS011;15926;51.348;6.596;2023-02-01T11:12:36;12.40;;;2.53;;
28774;SDS011;15926;51.348;6.596;2023-02-01T11:17:40;13.45;;;2.92;;
28774;SDS011;15926;51.348;6.596;2023-02-01T11:20:09;11.95;;;2.30;;
28774;SDS011;15926;51.348;6.596;2023-02-01T11:22:38;19.27;;;2.97;;
28774;SDS011;15926;51.348;6.596;2023-02-01T11:25:13;16.05;;;3.00;;
28774;SDS011;15926;51.348;6.596;2023-02-01T11:27:39;19.27;;;3.15;;
28774;SDS011;15926;51.348;6.596;2023-02-01T11:30:06;14.00;;;3.38;;
28774;SDS011;15926;51.348;6.596;2023-02-01T11:32:32;14.50;;;3.25;;
28774;SDS011;15926;51.348;6.596;2023-02-01T11:35:02;12.73;;;3.22;;
28774;SDS011;15926;51.348;6.596;2023-02-01T11:37:35;13.80;;;3.33;;
28774;SDS011;15926;51.348;6.596;2023-02-01T11:40:03;16.40;;;2.92;;
28774;SDS011;15926;51.348;6.596;2023-02-01T11:42:30;10.77;;;3.00;;
28774;SDS011;15926;51.348;6.596;2023-02-01T11:47:41;12.00;;;2.78;;
28774;SDS011;15926;51.348;6.596;2023-02-01T11:53:05;15.30;;;3.80;;
28774;SDS011;15926;51.348;6.596;2023-02-01T12:00:47;12.35;;;2.60;;
28774;SDS011;15926;51.348;6.596;2023-02-01T12:11:21;17.05;;;2.63;;
28774;SDS011;15926;51.348;6.596;2023-02-01T12:13:55;14.23;;;2.10;;
28774;SDS011;15926;51.348;6.596;2023-02-01T12:16:28;11.95;;;2.83;;
28774;SDS011;15926;51.348;6.596;2023-02-01T12:21:44;8.10;;;2.40;;
28774;SDS011;15926;51.348;6.596;2023-02-01T12:29:53;13.32;;;2.97;;
28774;SDS011;15926;51.348;6.596;2023-02-01T12:37:42;12.73;;;2.05;;
28774;SDS011;15926;51.348;6.596;2023-02-01T12:40:19;15.27;;;2.80;;
28774;SDS011;15926;51.348;6.596;2023-02-01T12:42:58;9.05;;;1.80;;
28774;SDS011;15926;51.348;6.596;2023-02-01T12:45:30;12.40;;;2.17;;
28774;SDS011;15926;51.348;6.596;2023-02-01T12:47:59;10.82;;;2.17;;
28774;SDS011;15926;51.348;6.596;2023-02-01T12:50:29;18.35;;;2.80;;
28774;SDS011;15926;51.348;6.596;2023-02-01T12:53:02;9.05;;;1.88;;
28774;SDS011;15926;51.348;6.596;2023-02-01T12:55:42;10.82;;;2.15;;
28774;SDS011;15926;51.348;6.596;2023-02-01T12:58:15;5.97;;;1.75;;
28774;SDS011;15926;51.348;6.596;2023-02-01T13:05:54;10.55;;;1.67;;
28774;SDS011;15926;51.348;6.596;2023-02-01T13:08:23;14.85;;;2.15;;
28774;SDS011;15926;51.348;6.596;2023-02-01T13:10:58;12.02;;;1.65;;
28774;SDS011;15926;51.348;6.596;2023-02-01T13:13:39;14.70;;;1.95;;
28774;SDS011;15926;51.348;6.596;2023-02-01T13:16:25;12.60;;;2.03;;
28774;SDS011;15926;51.348;6.596;2023-02-01T13:18:55;7.25;;;1.63;;
28774;SDS011;15926;51.348;6.596;2023-02-01T13:21:26;7.55;;;1.83;;
28774;SDS011;15926;51.348;6.596;2023-02-01T13:23:53;12.38;;;1.45;;
28774;SDS011;15926;51.348;6.596;2023-02-01T13:26:19;8.85;;;1.48;;
28774;SDS011;15926;51.348;6.596;2023-02-01T13:41:58;10.90;;;1.45;;
28774;SDS011;15926;51.348;6.596;2023-02-01T13:44:28;4.65;;;1.27;;
28774;SDS011;15926;51.348;6.596;2023-02-01T13:46:57;8.65;;;0.98;;
28774;SDS011;15926;51.348;6.596;2023-02-01T13:49:25;8.07;;;1.63;;
28774;SDS011;15926;51.348;6.596;2023-02-01T13:51:53;9.98;;;2.15;;
28774;SDS011;15926;51.348;6.596;2023-02-01T14:00:05;8.25;;;1.58;;
28774;SDS011;15926;51.348;6.596;2023-02-01T14:05:01;12.32;;;2.22;;
28774;SDS011;15926;51.348;6.596;2023-02-01T14:07:27;14.23;;;2.08;;
28774;SDS011;15926;51.348;6.596;2023-02-01T14:09:53;7.05;;;1.67;;
28774;SDS011;15926;51.348;6.596;2023-02-01T14:15:23;12.15;;;2.35;;
28774;SDS011;15926;51.348;6.596;2023-02-01T14:17:50;10.05;;;1.48;;
28774;SDS011;15926;51.348;6.596;2023-02-01T14:23:01;8.10;;;1.40;;
28774;SDS011;15926;51.348;6.596;2023-02-01T14:25:32;19.63;;;2.53;;
28774;SDS011;15926;51.348;6.596;2023-02-01T14:27:58;6.38;;;1.50;;
28774;SDS011;15926;51.348;6.596;2023-02-01T14:30:25;12.70;;;2.25;;
28774;SDS011;15926;51.348;6.596;2023-02-01T14:32:51;6.50;;;1.33;;
28774;SDS011;15926;51.348;6.596;2023-02-01T14:35:21;6.57;;;1.38;;
28774;SDS011;15926;51.348;6.596;2023-02-01T14:37:53;7.32;;;1.48;;
28774;SDS011;15926;51.348;6.596;2023-02-01T14:40:20;6.28;;;2.08;;
28774;SDS011;15926;51.348;6.596;2023-02-01T14:42:49;17.40;;;2.13;;
28774;SDS011;15926;51.348;6.596;2023-02-01T14:47:51;9.48;;;1.88;;
28774;SDS011;15926;51.348;6.596;2023-02-01T14:58:00;9.43;;;1.77;;
28774;SDS011;15926;51.348;6.596;2023-02-01T15:00:28;12.50;;;1.70;;
28774;SDS011;15926;51.348;6.596;2023-02-01T15:02:55;17.55;;;1.92;;
28774;SDS011;15926;51.348;6.596;2023-02-01T15:05:26;8.98;;;1.42;;
28774;SDS011;15926;51.348;6.596;2023-02-01T15:07:55;15.65;;;1.83;;
28774;SDS011;15926;51.348;6.596;2023-02-01T15:10:23;10.25;;;1.98;;
28774;SDS011;15926;51.348;6.596;2023-02-01T15:12:49;11.48;;;2.13;;
28774;SDS011;15926;51.348;6.596;2023-02-01T15:15:19;12.20;;;1.88;;
28774;SDS011;15926;51.348;6.596;2023-02-01T15:17:53;8.82;;;2.00;;
28774;SDS011;15926;51.348;6.596;2023-02-01T15:20:27;6.35;;;1.65;;
28774;SDS011;15926;51.348;6.596;2023-02-01T15:25:20;13.23;;;1.95;;
28774;SDS011;15926;51.348;6.596;2023-02-01T15:27:47;12.73;;;2.35;;
28774;SDS011;15926;51.348;6.596;2023-02-01T15:30:20;10.57;;;1.98;;
28774;SDS011;15926;51.348;6.596;2023-02-01T15:32:47;9.30;;;1.50;;
28774;SDS011;15926;51.348;6.596;2023-02-01T15:43:20;9.93;;;1.92;;
28774;SDS011;15926;51.348;6.596;2023-02-01T15:45:47;9.88;;;1.60;;
28774;SDS011;15926;51.348;6.596;2023-02-01T15:48:19;13.20;;;2.55;;
28774;SDS011;15926;51.348;6.596;2023-02-01T15:50:46;17.50;;;2.88;;
28774;SDS011;15926;51.348;6.596;2023-02-01T15:53:14;8.55;;;2.00;;
28774;SDS011;15926;51.348;6.596;2023-02-01T15:55:42;17.40;;;2.25;;
28774;SDS011;15926;51.348;6.596;2023-02-01T15:58:13;11.82;;;2.20;;
28774;SDS011;15926;51.348;6.596;2023-02-01T16:00:47;16.30;;;2.63;;
28774;SDS011;15926;51.348;6.596;2023-02-01T16:03:24;9.20;;;1.67;;
28774;SDS011;15926;51.348;6.596;2023-02-01T16:05:54;10.45;;;2.20;;
28774;SDS011;15926;51.348;6.596;2023-02-01T16:08:22;10.68;;;1.83;;
28774;SDS011;15926;51.348;6.596;2023-02-01T16:10:50;14.80;;;1.88;;
28774;SDS011;15926;51.348;6.596;2023-02-01T16:13:17;5.32;;;1.65;;
28774;SDS011;15926;51.348;6.596;2023-02-01T16:15:43;9.48;;;2.15;;
28774;SDS011;15926;51.348;6.596;2023-02-01T16:18:10;12.55;;;2.00;;
28774;SDS011;15926;51.348;6.596;2023-02-01T16:20:37;16.13;;;2.10;;
28774;SDS011;15926;51.348;6.596;2023-02-01T16:23:04;11.70;;;1.88;;
28774;SDS011;15926;51.348;6.596;2023-02-01T16:25:30;15.35;;;3.10;;
28774;SDS011;15926;51.348;6.596;2023-02-01T16:27:56;11.13;;;2.08;;
28774;SDS011;15926;51.348;6.596;2023-02-01T16:30:22;12.02;;;2.25;;
28774;SDS011;15926;51.348;6.596;2023-02-01T16:32:51;9.48;;;1.77;;
28774;SDS011;15926;51.348;6.596;2023-02-01T16:35:24;8.50;;;1.83;;
28774;SDS011;15926;51.348;6.596;2023-02-01T16:37:51;13.82;;;2.75;;
28774;SDS011;15926;51.348;6.596;2023-02-01T16:40:17;11.50;;;2.17;;
28774;SDS011;15926;51.348;6.596;2023-02-01T16:42:44;10.98;;;2.28;;
28774;SDS011;15926;51.348;6.596;2023-02-01T16:45:11;17.08;;;3.17;;
28774;SDS011;15926;51.348;6.596;2023-02-01T16:47:37;9.25;;;2.15;;
28774;SDS011;15926;51.348;6.596;2023-02-01T16:50:04;14.63;;;3.22;;
28774;SDS011;15926;51.348;6.596;2023-02-01T16:52:30;17.85;;;2.22;;
28774;SDS011;15926;51.348;6.596;2023-02-01T16:54:56;17.50;;;1.88;;
28774;SDS011;15926;51.348;6.596;2023-02-01T16:57:22;17.05;;;2.00;;
28774;SDS011;15926;51.348;6.596;2023-02-01T16:59:48;14.70;;;2.15;;
28774;SDS011;15926;51.348;6.596;2023-02-01T17:02:18;10.25;;;1.55;;
28774;SDS011;15926;51.348;6.596;2023-02-01T17:04:45;14.48;;;2.35;;
28774;SDS011;15926;51.348;6.596;2023-02-01T17:07:13;14.32;;;2.65;;
28774;SDS011;15926;51.348;6.596;2023-02-01T17:09:39;14.73;;;2.55;;
28774;SDS011;15926;51.348;6.596;2023-02-01T17:12:05;17.88;;;2.33;;